Time;durP1;ratioP1;P1;durP2;ratioP2;P2;SDS_P1;SDS_P2;PMS_P1;PMS_P2;Temp;Humidity;BMP_temperature;BMP_pressure;BME280_temperature;BME280_humidity;BME280_pressure;Samples;Min_cycle;Max_cycle;Signal;HPM_P1;HPM_P2
2022/04/02 00:01:39;;;;;;;9.75;3.70;;;3.80;99.90;;;;;;4141777;28;20049;-63
2022/04/02 00:03:40;;;;;;;8.73;3.80;;;3.70;99.90;;;;;;4143602;28;20092;-63
2022/04/02 00:05:41;;;;;;;9.77;4.05;;;3.80;99.90;;;;;;4140852;28;20052;-63
2022/04/02 00:07:42;;;;;;;5.40;3.60;;;3.80;99.90;;;;;;4142597;28;20121;-63
2022/04/02 00:09:43;;;;;;;6.03;3.65;;;3.80;99.90;;;;;;4144531;28;20084;-63
2022/04/02 00:11:45;;;;;;;6.32;4.13;;;3.70;99.90;;;;;;4142293;28;20038;-63
2022/04/02 00:13:46;;;;;;;;;;;3.80;99.90;;;;;;4143245;28;20034;-63
2022/04/02 00:15:46;;;;;;;5.70;3.40;;;3.80;99.90;;;;;;4142763;28;19971;-63
2022/04/02 00:17:47;;;;;;;6.93;3.40;;;3.70;99.90;;;;;;4143181;28;20478;-63
2022/04/02 00:19:48;;;;;;;5.97;3.42;;;3.70;99.90;;;;;;4142136;28;20637;-63
2022/04/02 00:21:48;;;;;;;7.80;3.42;;;3.70;99.90;;;;;;4140825;28;20083;-63
2022/04/02 00:23:49;;;;;;;6.40;3.47;;;3.70;99.90;;;;;;4142544;28;20034;-63
2022/04/02 00:25:50;;;;;;;7.07;3.78;;;3.70;99.90;;;;;;4141225;28;20061;-62
2022/04/02 00:27:50;;;;;;;6.63;3.47;;;3.70;99.90;;;;;;4142788;28;20061;-62
2022/04/02 00:29:51;;;;;;;8.15;3.75;;;3.70;99.90;;;;;;4140262;28;20032;-63
2022/04/02 00:31:51;;;;;;;7.93;3.97;;;3.70;99.90;;;;;;4140964;28;20026;-63
2022/04/02 00:33:52;;;;;;;6.85;3.42;;;3.70;99.90;;;;;;4141320;28;20027;-63
2022/04/02 00:35:53;;;;;;;5.65;3.15;;;3.70;99.90;;;;;;4141803;28;20978;-63
2022/04/02 00:37:53;;;;;;;4.50;3.08;;;3.70;99.90;;;;;;4142226;28;20103;-63
2022/04/02 00:39:54;;;;;;;6.72;3.05;;;3.70;99.90;;;;;;4143841;28;20120;-63
2022/04/02 00:41:55;;;;;;;5.57;2.85;;;3.80;99.90;;;;;;4139314;28;20038;-63
2022/04/02 00:44:17;;;;;;;7.60;3.70;;;3.70;99.90;;;;;;4143635;28;20041;-63
2022/04/02 00:46:17;;;;;;;4.22;3.08;;;3.70;99.90;;;;;;4140872;28;20026;-63
2022/04/02 00:48:19;;;;;;;8.13;3.58;;;3.60;99.90;;;;;;4144195;28;20042;-63
2022/04/02 00:50:20;;;;;;;5.72;3.50;;;3.60;99.90;;;;;;4146207;28;20573;-63
2022/04/02 00:52:21;;;;;;;7.82;3.20;;;3.60;99.90;;;;;;4145730;28;20034;-63
2022/04/02 00:54:22;;;;;;;5.97;3.30;;;3.70;99.90;;;;;;4143794;28;20034;-63
2022/04/02 00:56:23;;;;;;;4.15;2.85;;;3.70;99.90;;;;;;4146843;28;20111;-63
2022/04/02 00:58:24;;;;;;;3.95;2.80;;;3.60;99.90;;;;;;4153712;28;20192;-63
2022/04/02 01:00:25;;;;;;;5.13;2.90;;;3.70;99.90;;;;;;4154987;28;20029;-63
2022/04/02 01:02:26;;;;;;;5.05;2.97;;;3.70;99.90;;;;;;4152195;28;20133;-63
2022/04/02 01:04:26;;;;;;;6.70;3.60;;;3.70;99.90;;;;;;4153309;28;20955;-63
2022/04/02 01:06:28;;;;;;;5.93;3.10;;;3.70;99.90;;;;;;4152054;28;20494;-62
2022/04/02 01:08:29;;;;;;;6.97;3.33;;;3.70;99.90;;;;;;4151406;28;20501;-63
2022/04/02 01:10:30;;;;;;;4.68;2.88;;;3.70;99.90;;;;;;4153274;28;20091;-63
2022/04/02 01:12:30;;;;;;;8.52;3.75;;;3.70;99.90;;;;;;4151987;28;20038;-62
2022/04/02 01:14:31;;;;;;;7.10;3.38;;;3.70;99.90;;;;;;4152085;28;20034;-63
2022/04/02 01:16:33;;;;;;;6.70;3.63;;;3.70;99.90;;;;;;4154405;28;20044;-63
2022/04/02 01:18:34;;;;;;;6.38;2.90;;;3.70;99.90;;;;;;4153217;28;20045;-62
2022/04/02 01:20:34;;;;;;;4.90;2.50;;;3.70;99.90;;;;;;4151220;28;20046;-65
2022/04/02 01:22:36;;;;;;;6.43;3.00;;;3.70;99.90;;;;;;4151759;28;20038;-63
2022/04/02 01:24:37;;;;;;;7.20;3.23;;;3.80;99.90;;;;;;4150680;28;20050;-64
2022/04/02 01:26:37;;;;;;;6.47;2.97;;;3.70;99.90;;;;;;4149867;28;20565;-63
2022/04/02 01:28:38;;;;;;;4.78;3.03;;;3.80;99.90;;;;;;4154156;28;21038;-64
2022/04/02 01:30:39;;;;;;;7.90;3.65;;;3.70;99.90;;;;;;4152341;28;20100;-63
2022/04/02 01:32:39;;;;;;;5.60;2.90;;;3.80;99.90;;;;;;4152626;28;20445;-63
2022/04/02 01:34:40;;;;;;;4.70;2.60;;;3.80;99.90;;;;;;4147549;28;20050;-63
2022/04/02 01:36:40;;;;;;;5.28;2.88;;;3.80;99.90;;;;;;4150436;28;20462;-63
2022/04/02 01:38:41;;;;;;;3.78;2.65;;;3.80;99.90;;;;;;4149900;28;20392;-63
2022/04/02 01:40:42;;;;;;;9.25;2.55;;;3.70;99.90;;;;;;4149492;28;20041;-62
2022/04/02 01:42:43;;;;;;;5.60;2.40;;;3.70;99.90;;;;;;4152928;28;20586;-63
2022/04/02 01:44:49;;;;;;;4.43;2.60;;;3.70;99.90;;;;;;4150129;28;20092;-63
2022/04/02 01:46:50;;;;;;;5.38;2.55;;;3.70;99.90;;;;;;4150275;28;20569;-63
2022/04/02 01:48:50;;;;;;;6.82;2.72;;;3.80;99.90;;;;;;4149687;28;20041;-62
2022/04/02 01:50:51;;;;;;;4.70;2.35;;;3.80;99.90;;;;;;4150751;28;20026;-63
2022/04/02 01:52:52;;;;;;;7.03;2.78;;;3.80;99.90;;;;;;4151215;28;20037;-62
2022/04/02 01:54:53;;;;;;;5.00;2.50;;;3.80;99.90;;;;;;4153380;28;20038;-63
2022/04/02 01:56:53;;;;;;;3.72;2.10;;;3.80;99.90;;;;;;4149976;28;20060;-63
2022/04/02 01:58:54;;;;;;;5.25;2.70;;;3.80;99.90;;;;;;4151809;28;20124;-62
2022/04/02 02:00:55;;;;;;;7.22;2.97;;;3.80;99.90;;;;;;4148797;28;20081;-62
2022/04/02 02:02:55;;;;;;;3.30;2.20;;;3.80;99.90;;;;;;4153712;28;20385;-63
2022/04/02 02:04:56;;;;;;;4.78;2.28;;;3.80;99.90;;;;;;4149120;28;20113;-62
2022/04/02 02:06:57;;;;;;;4.57;2.60;;;3.80;99.90;;;;;;4151069;28;20038;-62
2022/04/02 02:08:57;;;;;;;4.80;2.58;;;3.80;99.90;;;;;;4150479;28;20063;-62
2022/04/02 02:10:58;;;;;;;4.72;2.67;;;3.80;99.90;;;;;;4149110;28;20033;-63
2022/04/02 02:12:59;;;;;;;5.53;2.22;;;3.80;99.90;;;;;;4136041;28;20046;-62
2022/04/02 02:15:00;;;;;;;4.25;2.15;;;3.80;99.90;;;;;;4151556;28;20038;-62
2022/04/02 02:17:01;;;;;;;6.30;2.97;;;3.70;99.90;;;;;;4142400;28;20069;-62
2022/04/02 02:19:01;;;;;;;4.57;2.63;;;3.80;99.90;;;;;;4146437;28;20061;-63
2022/04/02 02:21:02;;;;;;;3.03;2.30;;;3.80;99.90;;;;;;4143079;28;20104;-63
2022/04/02 02:23:03;;;;;;;2.53;1.85;;;3.80;99.90;;;;;;4145200;28;20054;-63
2022/04/02 02:25:05;;;;;;;2.95;2.10;;;3.80;99.90;;;;;;4144309;28;20123;-64
2022/04/02 02:27:08;;;;;;;5.43;2.10;;;3.80;99.90;;;;;;4143522;28;20477;-67
2022/04/02 02:29:09;;;;;;;6.00;2.35;;;3.80;99.90;;;;;;4144037;28;20497;-63
2022/04/02 02:31:09;;;;;;;4.07;2.25;;;3.80;99.90;;;;;;4143791;28;20064;-63
2022/04/02 02:37:48;;;;;;;4.40;1.92;;;3.80;99.90;;;;;;4140748;28;20434;-63
2022/04/02 02:39:49;;;;;;;3.53;2.22;;;3.80;99.90;;;;;;4143275;28;20116;-62
2022/04/02 02:41:50;;;;;;;5.82;2.53;;;3.80;99.90;;;;;;4144652;28;20504;-62
2022/04/02 02:43:50;;;;;;;6.00;2.47;;;3.80;99.90;;;;;;4144775;28;20044;-62
2022/04/02 02:45:51;;;;;;;5.07;2.17;;;3.80;99.90;;;;;;4142740;28;20557;-62
2022/04/02 02:47:52;;;;;;;5.30;2.55;;;3.80;99.90;;;;;;4143778;28;20049;-62
2022/04/02 02:49:53;;;;;;;3.47;2.55;;;3.80;99.90;;;;;;4139382;28;20544;-62
2022/04/02 02:51:54;;;;;;;6.22;2.65;;;3.90;99.90;;;;;;4144406;28;20091;-62
2022/04/02 02:53:54;;;;;;;6.25;2.53;;;3.90;99.90;;;;;;4143549;28;20069;-62
2022/04/02 02:55:55;;;;;;;4.63;2.25;;;3.80;99.90;;;;;;4141971;28;20425;-62
2022/04/02 02:57:56;;;;;;;4.65;2.30;;;3.90;99.90;;;;;;4144550;28;20474;-62
2022/04/02 02:59:57;;;;;;;3.90;2.55;;;3.90;99.90;;;;;;4144780;28;20046;-62
2022/04/02 03:01:57;;;;;;;6.32;2.95;;;3.90;99.90;;;;;;4141224;28;20049;-62
2022/04/02 03:03:58;;;;;;;6.07;3.53;;;3.80;99.90;;;;;;4145179;28;20034;-62
2022/04/02 03:05:59;;;;;;;5.05;2.90;;;3.80;99.90;;;;;;4143814;28;20470;-62
2022/04/02 03:08:02;;;;;;;6.25;3.20;;;3.90;99.90;;;;;;4145095;28;20050;-62
2022/04/02 03:10:02;;;;;;;8.95;3.10;;;3.80;99.90;;;;;;4143750;28;20034;-64
2022/04/02 03:12:03;;;;;;;5.75;3.25;;;3.80;99.90;;;;;;4142671;28;20117;-62
2022/04/02 03:14:04;;;;;;;7.30;3.63;;;3.90;99.90;;;;;;4143597;28;20048;-62
2022/04/02 03:16:06;;;;;;;8.52;3.40;;;3.90;99.90;;;;;;4143518;28;20061;-62
2022/04/02 03:18:08;;;;;;;6.30;3.20;;;3.90;99.90;;;;;;4142981;28;20363;-62
2022/04/02 03:20:11;;;;;;;8.05;3.05;;;3.90;99.90;;;;;;4142467;28;20164;-64
2022/04/02 03:22:12;;;;;;;7.78;3.47;;;3.90;99.90;;;;;;4142104;28;20033;-62
2022/04/02 03:24:13;;;;;;;9.15;3.28;;;3.90;99.90;;;;;;4143937;28;20046;-63
2022/04/02 03:26:14;;;;;;;6.35;3.28;;;3.90;99.90;;;;;;4142743;28;20536;-62
2022/04/02 03:28:14;;;;;;;6.35;2.80;;;4.00;99.90;;;;;;4144364;28;20038;-62
2022/04/02 03:30:20;;;;;;;4.05;2.42;;;3.90;99.90;;;;;;4141058;28;20030;-62
2022/04/02 03:32:20;;;;;;;6.07;2.25;;;4.00;99.90;;;;;;4144896;28;20034;-62
2022/04/02 03:34:21;;;;;;;3.90;2.40;;;3.90;99.90;;;;;;4145016;28;20482;-62
2022/04/02 03:36:21;;;;;;;2.78;1.90;;;3.90;99.90;;;;;;4143209;28;20041;-62
2022/04/02 03:38:22;;;;;;;2.40;1.75;;;3.90;99.90;;;;;;4141668;28;20407;-62
2022/04/02 03:40:25;;;;;;;4.30;1.77;;;3.80;99.90;;;;;;4142336;28;20038;-62
2022/04/02 03:42:26;;;;;;;6.03;1.77;;;3.80;99.90;;;;;;4142478;28;20441;-62
2022/04/02 03:44:26;;;;;;;3.90;1.92;;;3.60;99.90;;;;;;4142991;28;20120;-62
2022/04/02 03:48:46;;;;;;;2.72;1.83;;;3.70;99.90;;;;;;4142648;28;20069;-62
2022/04/02 03:50:47;;;;;;;4.43;1.70;;;3.80;99.90;;;;;;4142788;28;20084;-62
2022/04/02 03:52:48;;;;;;;6.00;2.17;;;3.80;99.90;;;;;;4141189;28;20060;-62
2022/04/02 03:54:48;;;;;;;3.13;1.73;;;3.70;99.90;;;;;;4145034;28;20122;-62
2022/04/02 03:56:49;;;;;;;3.40;2.13;;;3.80;99.90;;;;;;4141593;28;20084;-62
2022/04/02 03:58:50;;;;;;;3.42;2.30;;;3.80;99.90;;;;;;4142712;28;20030;-62
2022/04/02 04:00:52;;;;;;;2.33;1.77;;;3.80;99.90;;;;;;4141042;28;20406;-62
2022/04/02 04:02:53;;;;;;;3.70;1.90;;;3.80;99.90;;;;;;4144314;28;20030;-63
2022/04/02 04:04:53;;;;;;;3.67;1.63;;;3.90;99.90;;;;;;4140884;28;20037;-62
2022/04/02 04:06:54;;;;;;;5.63;2.08;;;3.80;99.90;;;;;;4141791;28;20030;-62
2022/04/02 04:08:56;;;;;;;3.53;2.03;;;3.90;99.90;;;;;;4142644;28;20511;-62
2022/04/02 04:10:57;;;;;;;3.42;1.88;;;3.90;99.90;;;;;;4141474;28;20497;-62
2022/04/02 04:12:58;;;;;;;2.80;1.92;;;3.90;99.90;;;;;;4143666;28;20100;-62
2022/04/02 04:14:58;;;;;;;4.45;1.70;;;3.90;99.90;;;;;;4141660;28;20046;-62
2022/04/02 04:16:59;;;;;;;3.78;1.95;;;3.80;99.90;;;;;;4142274;28;20045;-62
2022/04/02 04:18:59;;;;;;;2.95;1.77;;;3.80;99.90;;;;;;4144516;28;20579;-62
2022/04/02 04:21:01;;;;;;;3.22;1.75;;;3.90;99.90;;;;;;4125143;28;20042;-62
2022/04/02 04:23:01;;;;;;;2.50;1.48;;;3.90;99.90;;;;;;4141469;28;20432;-62
2022/04/02 04:25:02;;;;;;;5.15;1.75;;;3.90;99.90;;;;;;4144213;28;20046;-64
2022/04/02 04:27:03;;;;;;;3.53;1.88;;;3.90;99.90;;;;;;4140315;28;20080;-62
2022/04/02 04:29:04;;;;;;;3.17;1.77;;;3.90;99.90;;;;;;4141610;28;20045;-62
2022/04/02 04:31:05;;;;;;;2.55;1.90;;;3.90;99.90;;;;;;4141559;28;20172;-62
2022/04/02 04:33:06;;;;;;;3.30;1.98;;;3.80;99.90;;;;;;4142732;28;20026;-62
2022/04/02 04:35:07;;;;;;;3.67;1.83;;;3.90;99.90;;;;;;4143120;28;20037;-64
2022/04/02 04:37:08;;;;;;;3.83;1.90;;;3.90;99.90;;;;;;4142622;28;20041;-63
2022/04/02 04:39:08;;;;;;;3.42;2.10;;;3.80;99.90;;;;;;4142105;28;20034;-62
2022/04/02 04:41:09;;;;;;;4.60;2.55;;;3.90;99.90;;;;;;4143040;28;20026;-63
2022/04/02 04:43:10;;;;;;;4.80;2.10;;;3.80;99.90;;;;;;4142618;28;20049;-63
2022/04/02 04:45:10;;;;;;;2.85;1.67;;;3.80;99.90;;;;;;4142561;28;20397;-63
2022/04/02 04:47:11;;;;;;;4.47;2.03;;;3.80;99.90;;;;;;4142078;28;20053;-63
2022/04/02 04:49:12;;;;;;;4.65;2.25;;;3.80;99.90;;;;;;4144285;28;20490;-63
2022/04/02 04:51:13;;;;;;;3.60;2.00;;;3.80;99.90;;;;;;4140789;28;20066;-63
2022/04/02 04:53:14;;;;;;;2.78;1.63;;;3.70;99.90;;;;;;4142326;28;20088;-62
2022/04/02 04:55:15;;;;;;;4.22;2.15;;;3.80;99.90;;;;;;4143065;28;20026;-62
2022/04/02 04:57:15;;;;;;;3.35;1.77;;;3.80;99.90;;;;;;4142135;28;20048;-62
2022/04/02 04:59:16;;;;;;;3.30;1.95;;;3.90;99.90;;;;;;4143558;28;20085;-62
2022/04/02 05:01:17;;;;;;;4.35;2.05;;;3.90;99.90;;;;;;4142947;28;20119;-62
2022/04/02 05:03:17;;;;;;;3.60;2.22;;;3.90;99.90;;;;;;4142062;28;20374;-62
2022/04/02 05:05:18;;;;;;;3.08;2.10;;;3.90;99.90;;;;;;4143691;28;20037;-62
2022/04/02 05:07:19;;;;;;;5.40;2.30;;;3.90;99.90;;;;;;4143450;28;20061;-62
2022/04/02 05:09:20;;;;;;;6.88;2.58;;;3.90;99.90;;;;;;4142054;28;20078;-62
2022/04/02 05:11:20;;;;;;;4.20;2.00;;;3.80;99.90;;;;;;4142023;28;20042;-62
2022/04/02 05:13:21;;;;;;;3.90;2.10;;;3.60;99.90;;;;;;4141964;28;20026;-61
2022/04/02 05:15:21;;;;;;;5.95;1.90;;;3.70;99.90;;;;;;4141873;28;20397;-63
2022/04/02 05:17:22;;;;;;;2.95;1.80;;;3.70;99.90;;;;;;4142211;28;20077;-63
2022/04/02 05:19:23;;;;;;;3.78;2.28;;;3.70;99.90;;;;;;4141856;28;20030;-63
2022/04/02 05:21:23;;;;;;;4.72;2.15;;;3.60;99.90;;;;;;4142458;28;20034;-62
2022/04/02 05:23:24;;;;;;;2.65;1.80;;;3.60;99.90;;;;;;4140116;28;20597;-62
2022/04/02 05:25:26;;;;;;;3.17;1.88;;;3.70;99.90;;;;;;4142877;28;20100;-62
2022/04/02 05:27:28;;;;;;;4.63;1.95;;;3.70;99.90;;;;;;4142319;28;20030;-62
2022/04/02 05:29:28;;;;;;;5.47;2.08;;;3.70;99.90;;;;;;4142900;28;20057;-62
2022/04/02 05:31:29;;;;;;;3.38;1.90;;;3.70;99.90;;;;;;4142063;28;20042;-62
2022/04/02 05:33:30;;;;;;;3.47;2.35;;;3.60;99.90;;;;;;4144962;28;20184;-62
2022/04/02 05:35:31;;;;;;;5.05;2.35;;;3.70;99.90;;;;;;4145296;28;20026;-62
2022/04/02 05:37:31;;;;;;;3.25;2.10;;;3.70;99.90;;;;;;4143600;28;20065;-62
2022/04/02 05:39:32;;;;;;;3.33;1.80;;;3.60;99.90;;;;;;4144904;28;21916;-62
2022/04/02 05:41:33;;;;;;;3.53;1.98;;;3.70;99.90;;;;;;4143874;28;20048;-63
2022/04/02 05:43:34;;;;;;;3.97;1.92;;;3.70;99.90;;;;;;4143410;28;20092;-62
2022/04/02 05:45:34;;;;;;;3.05;2.22;;;3.70;99.90;;;;;;4144352;28;20052;-62
2022/04/02 05:47:46;;;;;;;4.53;2.10;;;3.70;99.90;;;;;;4144470;28;20054;-62
2022/04/02 05:49:48;;;;;;;5.75;2.50;;;3.70;99.90;;;;;;4143544;28;20033;-62
2022/04/02 05:51:49;;;;;;;3.78;2.25;;;3.60;99.90;;;;;;4143223;28;20026;-62
2022/04/02 05:53:49;;;;;;;3.65;2.20;;;3.50;99.90;;;;;;4135980;28;20398;-62
2022/04/02 05:55:50;;;;;;;3.30;1.77;;;3.50;99.90;;;;;;4144582;28;20132;-62
2022/04/02 05:57:51;;;;;;;3.53;1.67;;;3.50;99.90;;;;;;4145345;28;20164;-63
2022/04/02 05:59:52;;;;;;;3.15;1.73;;;3.60;99.90;;;;;;4146535;28;20489;-62
2022/04/02 06:01:52;;;;;;;5.68;2.10;;;3.70;99.90;;;;;;4144418;28;20206;-62
2022/04/02 06:03:54;;;;;;;3.13;1.85;;;3.60;99.90;;;;;;4144367;28;20034;-62
2022/04/02 06:05:55;;;;;;;4.47;2.17;;;3.50;99.90;;;;;;4143241;28;20050;-62
2022/04/02 06:07:55;;;;;;;2.72;2.05;;;3.60;99.90;;;;;;4146340;28;20595;-62
2022/04/02 06:09:56;;;;;;;3.15;2.10;;;3.60;99.90;;;;;;4146071;28;20370;-62
2022/04/02 06:11:57;;;;;;;2.90;2.03;;;3.50;99.90;;;;;;4147117;28;20039;-62
2022/04/02 06:13:58;;;;;;;6.25;2.00;;;3.50;99.90;;;;;;4144465;28;20440;-62
2022/04/02 06:15:59;;;;;;;3.63;1.95;;;3.50;99.90;;;;;;4144153;28;20101;-62
2022/04/02 06:17:59;;;;;;;2.92;2.05;;;3.60;99.90;;;;;;4144926;28;20477;-62
2022/04/02 06:20:00;;;;;;;3.42;2.10;;;3.60;99.90;;;;;;4128656;28;20034;-62
2022/04/02 06:22:01;;;;;;;5.78;2.17;;;3.60;99.90;;;;;;4143687;28;20034;-62
2022/04/02 06:24:05;;;;;;;5.80;2.38;;;3.60;99.90;;;;;;4145168;28;20030;-63
2022/04/02 06:26:06;;;;;;;3.72;2.35;;;3.60;99.90;;;;;;4143192;28;20022;-63
2022/04/02 06:28:07;;;;;;;4.10;1.92;;;3.70;99.90;;;;;;4146171;28;20048;-63
2022/04/02 06:30:10;;;;;;;2.97;1.90;;;3.60;99.90;;;;;;4144556;28;20038;-65
2022/04/02 06:32:11;;;;;;;4.32;2.35;;;3.60;99.90;;;;;;4144163;28;20045;-63
2022/04/02 06:34:11;;;;;;;2.53;1.80;;;3.50;99.90;;;;;;4145960;28;20030;-63
2022/04/02 06:36:12;;;;;;;3.47;1.98;;;3.60;99.90;;;;;;4142496;28;20084;-63
2022/04/02 06:38:13;;;;;;;4.88;2.15;;;3.70;99.90;;;;;;4143734;28;20057;-63
2022/04/02 06:40:14;;;;;;;4.25;2.10;;;3.60;99.90;;;;;;4138168;28;20033;-63
2022/04/02 06:42:14;;;;;;;4.75;2.22;;;3.60;99.90;;;;;;4144540;28;20394;-62
2022/04/02 06:44:16;;;;;;;3.83;2.00;;;3.60;99.90;;;;;;4142435;28;20069;-62
2022/04/02 06:46:16;;;;;;;7.82;2.50;;;3.50;99.90;;;;;;4143867;28;20038;-63
2022/04/02 06:48:17;;;;;;;5.70;2.22;;;3.60;99.90;;;;;;4139109;28;20180;-63
2022/04/02 06:50:18;;;;;;;2.65;1.80;;;3.60;99.90;;;;;;4140683;28;20528;-63
2022/04/02 06:52:18;;;;;;;4.35;2.15;;;3.70;99.90;;;;;;4143537;28;20038;-63
2022/04/02 06:54:19;;;;;;;3.55;1.98;;;3.70;99.90;;;;;;4147967;28;20034;-63
2022/04/02 06:56:20;;;;;;;5.85;2.33;;;3.80;99.90;;;;;;4143269;28;20034;-63
2022/04/02 06:58:29;;;;;;;3.30;2.22;;;3.70;99.90;;;;;;4142398;28;20042;-63
2022/04/02 07:00:29;;;;;;;3.47;2.08;;;3.90;99.90;;;;;;4143031;28;20145;-63
2022/04/02 07:02:30;;;;;;;4.38;2.30;;;3.90;99.90;;;;;;4144460;28;20042;-63
2022/04/02 07:04:31;;;;;;;3.85;2.08;;;4.00;99.90;;;;;;4145569;28;20042;-63
2022/04/02 07:06:34;;;;;;;3.58;2.28;;;4.00;99.90;;;;;;4143130;28;20029;-63
2022/04/02 07:08:38;;;;;;;4.77;2.50;;;4.10;99.90;;;;;;4145359;28;20041;-63
2022/04/02 07:10:39;;;;;;;4.47;2.33;;;4.00;99.90;;;;;;4127718;28;20058;-63
2022/04/02 07:12:40;;;;;;;5.10;2.47;;;4.10;99.90;;;;;;4144651;28;20136;-62
2022/04/02 07:14:41;;;;;;;4.45;2.03;;;4.10;99.90;;;;;;4144751;28;20096;-64
2022/04/02 07:16:41;;;;;;;3.00;1.98;;;4.20;99.90;;;;;;4143079;28;20125;-64
2022/04/02 07:18:46;;;;;;;3.83;2.40;;;4.20;99.90;;;;;;4144592;28;20065;-64
2022/04/02 07:20:51;;;;;;;2.63;1.77;;;4.30;99.90;;;;;;4143251;28;20083;-63
2022/04/02 07:22:53;;;;;;;3.78;2.30;;;4.30;99.90;;;;;;4144648;28;20117;-63
2022/04/02 07:24:56;;;;;;;6.55;2.63;;;4.40;99.90;;;;;;4143444;28;20065;-63
2022/04/02 07:26:57;;;;;;;4.50;2.88;;;4.50;99.90;;;;;;4142397;28;20485;-63
2022/04/02 07:28:59;;;;;;;7.00;2.42;;;4.50;99.90;;;;;;4143891;28;20091;-63
2022/04/02 07:31:00;;;;;;;3.92;2.10;;;4.50;99.90;;;;;;4142556;28;20030;-63
2022/04/02 07:33:01;;;;;;;4.70;2.35;;;4.50;99.90;;;;;;4144903;28;20049;-63
2022/04/02 07:35:02;;;;;;;5.57;2.60;;;4.60;99.90;;;;;;4144971;28;20108;-63
2022/04/02 07:37:27;;;;;;;2.70;2.00;;;4.70;99.90;;;;;;4142282;28;20037;-63
2022/04/02 07:39:34;;;;;;;3.28;2.15;;;4.50;99.90;;;;;;4142461;28;20517;-63
2022/04/02 07:41:53;;;;;;;3.92;1.90;;;4.50;99.90;;;;;;4143113;28;20034;-63
2022/04/02 07:44:17;;;;;;;3.88;2.03;;;4.60;99.90;;;;;;4142633;28;20026;-63
2022/04/02 07:46:21;;;;;;;4.93;2.30;;;4.60;99.90;;;;;;4142636;28;20111;-63
2022/04/02 07:48:23;;;;;;;5.28;2.20;;;4.60;99.90;;;;;;4146141;28;20065;-63
2022/04/02 07:50:26;;;;;;;3.00;2.15;;;4.60;99.90;;;;;;4142453;28;20038;-63
2022/04/02 07:52:27;;;;;;;2.60;2.00;;;4.60;99.90;;;;;;4145060;28;20037;-63
2022/04/02 07:54:34;;;;;;;3.47;1.90;;;4.70;99.90;;;;;;4142812;28;20180;-63
2022/04/02 07:56:37;;;;;;;3.45;2.00;;;4.50;99.90;;;;;;4141139;28;20042;-63
2022/04/02 07:58:41;;;;;;;4.15;2.45;;;4.60;99.90;;;;;;4144745;28;20426;-63
2022/04/02 08:00:43;;;;;;;3.83;2.30;;;4.70;99.90;;;;;;4141606;28;20053;-63
2022/04/02 08:02:46;;;;;;;3.60;2.08;;;4.80;99.90;;;;;;4143520;28;20092;-63
2022/04/02 08:04:47;;;;;;;;;;;4.80;99.90;;;;;;4149829;28;20030;-63
2022/04/02 08:06:49;;;;;;;4.50;1.88;;;4.90;99.90;;;;;;4143972;28;19992;-63
2022/04/02 08:08:50;;;;;;;4.03;2.47;;;4.90;99.90;;;;;;4142598;28;20037;-63
2022/04/02 08:10:54;;;;;;;4.57;2.60;;;4.90;99.90;;;;;;4140782;28;20030;-63
2022/04/02 08:12:57;;;;;;;4.60;2.53;;;4.90;99.90;;;;;;4143921;28;20049;-63
2022/04/02 08:14:58;;;;;;;3.35;2.13;;;4.90;99.90;;;;;;4152793;28;20026;-63
2022/04/02 08:16:59;;;;;;;3.30;2.00;;;5.00;99.90;;;;;;4148379;28;20107;-63
2022/04/02 08:19:02;;;;;;;4.90;2.65;;;5.10;99.90;;;;;;4150290;28;20124;-63
2022/04/02 08:21:02;;;;;;;6.30;2.80;;;5.10;99.90;;;;;;4149441;28;20046;-63
2022/04/02 08:23:03;;;;;;;5.90;2.80;;;5.10;99.90;;;;;;4147629;28;20069;-63
2022/04/02 08:25:05;;;;;;;4.78;2.47;;;5.00;99.90;;;;;;4148021;28;20463;-66
2022/04/02 08:27:38;;;;;;;4.32;2.47;;;5.00;99.90;;;;;;4146167;28;20042;-63
2022/04/02 08:29:48;;;;;;;;;;;5.00;99.90;;;;;;4151101;28;20038;-62
2022/04/02 08:31:57;;;;;;;6.28;2.85;;;5.10;99.90;;;;;;4141329;28;20381;-63
2022/04/02 08:34:23;;;;;;;3.72;2.58;;;4.80;99.90;;;;;;4156318;28;20050;-63
2022/04/02 08:36:41;;;;;;;3.97;2.50;;;5.10;99.90;;;;;;4151100;28;20033;-63
2022/04/02 08:39:04;;;;;;;4.32;2.90;;;5.10;99.90;;;;;;4150453;28;20021;-63
2022/04/02 08:41:26;;;;;;;5.35;2.55;;;5.20;99.90;;;;;;4143787;28;20041;-62
2022/04/02 08:43:51;;;;;;;7.55;2.47;;;5.30;99.90;;;;;;4148084;28;20103;-63
2022/04/02 08:46:18;;;;;;;3.97;2.70;;;5.10;99.90;;;;;;4147515;28;20029;-63
2022/04/02 08:48:28;;;;;;;5.30;2.88;;;5.30;99.90;;;;;;4147688;28;20512;-63
2022/04/02 08:50:31;;;;;;;5.70;2.90;;;5.10;99.90;;;;;;4141927;28;20038;-63
2022/04/02 08:52:49;;;;;;;5.03;3.03;;;5.20;99.90;;;;;;4147495;28;20042;-62
2022/04/02 08:55:08;;;;;;;6.07;2.75;;;5.10;99.90;;;;;;4150299;28;20037;-62
2022/04/02 08:57:53;;;;;;;5.38;2.85;;;5.20;99.90;;;;;;4148832;28;20062;-62
2022/04/02 09:00:04;;;;;;;6.47;3.35;;;5.40;99.90;;;;;;4121497;28;20552;-63
2022/04/02 09:02:38;;;;;;;4.13;2.70;;;5.40;99.90;;;;;;4149208;28;20026;-63
2022/04/02 09:05:09;;;;;;;5.07;3.17;;;5.50;99.90;;;;;;4150665;28;20033;-63
2022/04/02 09:07:40;;;;;;;6.35;2.72;;;5.40;99.90;;;;;;4152463;28;20034;-63
2022/04/02 09:10:19;;;;;;;6.20;3.30;;;5.50;99.90;;;;;;4146489;28;20061;-63
2022/04/02 09:12:45;;;;;;;4.68;3.30;;;5.50;99.90;;;;;;4148141;28;20109;-63
2022/04/02 09:15:09;;;;;;;6.07;3.30;;;5.40;99.90;;;;;;4148952;28;20030;-64
2022/04/02 09:17:36;;;;;;;8.45;2.80;;;5.40;99.90;;;;;;4146853;28;20120;-63
2022/04/02 09:20:12;;;;;;;7.63;3.75;;;5.30;99.90;;;;;;4148604;28;20021;-63
2022/04/02 09:22:38;;;;;;;6.68;3.78;;;4.90;99.90;;;;;;4150090;28;20029;-63
2022/04/02 09:25:30;;;;;;;6.07;3.40;;;5.20;99.90;;;;;;4143604;28;20072;-63
2022/04/02 09:28:12;;;;;;;6.97;3.92;;;5.20;99.90;;;;;;4111267;28;20041;-62
2022/04/02 09:30:51;;;;;;;5.78;3.38;;;5.40;99.90;;;;;;4136751;28;20113;-64
2022/04/02 09:33:26;;;;;;;6.97;3.15;;;5.40;99.90;;;;;;4114113;28;20156;-63
2022/04/02 09:35:38;;;;;;;5.35;3.38;;;5.40;99.90;;;;;;4145710;28;20036;-63
2022/04/02 09:38:18;;;;;;;5.25;3.45;;;5.50;99.90;;;;;;4142009;28;20493;-63
2022/04/02 09:40:24;;;;;;;7.18;3.80;;;5.60;99.90;;;;;;4145420;28;20026;-63
2022/04/02 09:42:43;;;;;;;7.20;3.65;;;5.70;99.90;;;;;;4145258;28;20482;-63
2022/04/02 09:45:03;;;;;;;7.07;3.72;;;5.70;99.90;;;;;;4144894;28;20033;-64
2022/04/02 09:47:17;;;;;;;5.38;3.25;;;5.70;99.90;;;;;;4141790;28;20187;-63
2022/04/02 09:49:42;;;;;;;6.03;3.58;;;5.70;99.90;;;;;;4148288;28;20091;-63
2022/04/02 09:51:49;;;;;;;5.55;3.30;;;5.80;99.90;;;;;;4143891;28;20034;-63
2022/04/02 09:54:04;;;;;;;6.40;3.55;;;5.70;99.90;;;;;;4145767;28;20030;-63
2022/04/02 09:56:33;;;;;;;8.35;3.90;;;5.50;99.90;;;;;;4142376;28;20064;-63
2022/04/02 09:58:39;;;;;;;4.93;3.22;;;5.60;99.90;;;;;;4132581;28;20472;-63
2022/04/02 10:01:00;;;;;;;6.97;3.45;;;5.60;99.90;;;;;;4144854;28;20057;-62
2022/04/02 10:03:08;;;;;;;7.43;3.78;;;5.40;99.90;;;;;;4145251;28;20037;-63
2022/04/02 10:05:14;;;;;;;6.13;4.00;;;5.40;99.90;;;;;;4145388;28;20033;-64
2022/04/02 10:08:02;;;;;;;7.07;3.90;;;5.50;99.90;;;;;;4143028;28;20042;-63
2022/04/02 10:10:03;;;;;;;7.82;3.92;;;5.30;99.90;;;;;;4145172;28;20508;-63
2022/04/02 10:12:07;;;;;;;7.00;3.75;;;5.20;99.90;;;;;;4143308;28;20045;-63
2022/04/02 10:14:08;;;;;;;6.28;3.40;;;5.40;99.90;;;;;;4145347;28;20454;-63
2022/04/02 10:16:12;;;;;;;6.28;3.25;;;5.10;99.90;;;;;;4142527;28;20085;-63
2022/04/02 10:18:17;;;;;;;5.70;3.40;;;5.10;99.90;;;;;;4143968;28;20026;-63
2022/04/02 10:20:28;;;;;;;7.03;3.70;;;5.30;99.90;;;;;;4140567;28;20121;-63
2022/04/02 10:22:45;;;;;;;6.97;3.55;;;5.10;99.90;;;;;;4143471;28;20506;-63
2022/04/02 10:24:50;;;;;;;5.80;3.30;;;5.30;99.90;;;;;;4144244;28;20095;-63
2022/04/02 10:26:56;;;;;;;5.72;3.60;;;5.40;99.90;;;;;;4144174;28;20034;-63
2022/04/02 10:28:58;;;;;;;10.90;3.40;;;5.50;99.90;;;;;;4143808;28;20050;-63
2022/04/02 10:31:01;;;;;;;7.15;3.08;;;5.40;99.90;;;;;;4142768;28;20026;-63
2022/04/02 10:35:25;;;;;;;6.88;3.50;;;5.20;99.90;;;;;;4144032;28;20026;-63
2022/04/02 10:37:30;;;;;;;;;;;5.10;99.90;;;;;;4144301;28;20033;-63
2022/04/02 10:39:36;;;;;;;5.13;3.00;;;5.10;99.90;;;;;;4142381;28;20408;-62
2022/04/02 10:41:40;;;;;;;5.18;3.20;;;5.20;99.90;;;;;;4144227;28;20089;-62
2022/04/02 10:43:54;;;;;;;4.05;2.92;;;5.20;99.90;;;;;;4146702;28;20118;-62
2022/04/02 10:45:56;;;;;;;4.13;2.53;;;5.10;99.90;;;;;;4142953;28;20050;-63
2022/04/02 10:48:12;;;;;;;6.55;3.30;;;5.30;99.90;;;;;;4145688;28;20044;-63
2022/04/02 10:50:17;;;;;;;4.82;2.92;;;5.40;99.90;;;;;;4142884;28;20490;-63
2022/04/02 10:52:19;;;;;;;4.65;2.80;;;5.40;99.90;;;;;;4144113;28;20045;-63
2022/04/02 10:54:27;;;;;;;8.05;3.50;;;5.30;99.90;;;;;;4143219;28;20104;-63
2022/04/02 10:56:33;;;;;;;5.05;2.85;;;5.40;99.90;;;;;;4146037;28;20124;-63
2022/04/02 10:58:40;;;;;;;6.18;3.03;;;5.50;99.90;;;;;;4142587;28;20041;-63
2022/04/02 11:00:47;;;;;;;7.35;3.17;;;5.00;99.90;;;;;;4143304;28;20096;-62
2022/04/02 11:02:50;;;;;;;5.20;3.00;;;4.80;99.90;;;;;;4143506;28;20393;-63
2022/04/02 11:05:04;;;;;;;5.25;3.00;;;4.70;99.90;;;;;;4143706;28;20068;-63
2022/04/02 11:07:06;;;;;;;4.80;3.05;;;4.60;99.90;;;;;;4142807;28;20035;-63
2022/04/02 11:09:27;;;;;;;5.63;2.78;;;4.70;99.90;;;;;;4146151;28;20046;-63